Data for 02/14/2008

Time Sea-Level Adjusted Pressure Absolute Pressure Temperature Relative Humidity Dew Point   
(mb) (inHg) (mb) (inHg) (C) (F) (%) (C) (F)
00:05 1017 30.03 846 24.98 -4.9 23.2 90 -6.2 20.8
00:10 1017 30.03 846 24.98 -4.9 23.1 91 -6.2 20.8
00:15 1017 30.03 846 24.98 -5 23.1 90 -6.3 20.7
00:20 1017 30.03 846 24.98 -5 23 90 -6.4 20.5
00:25 1017 30.03 846 24.98 -5 23 90 -6.5 20.4
00:30 1017 30.03 846 24.98 -5 23 90 -6.5 20.4
00:35 1017 30.03 846 24.98 -5.1 22.9 90 -6.5 20.3
00:40 1017 30.03 846 24.98 -5.1 22.8 89 -6.7 20
00:45 1017 30.03 846 24.98 -5.1 22.9 88 -6.8 19.8
00:50 1017 30.03 846 24.98 -5.2 22.7 87 -7 19.3
00:55 1017 30.03 846 24.98 -5.2 22.6 88 -6.9 19.5
01:00 1017 30.03 846 24.98 -5.2 22.6 87 -7 19.4
01:05 1017 30.03 846 24.98 -5.5 22.2 88 -7.2 19
01:10 1017 30.03 846 24.98 -5.9 21.4 90 -7.2 19
01:15 1017 30.03 846 24.98 -5.8 21.5 89 -7.4 18.7
01:20 1017 30.03 846 24.98 -5.7 21.7 88 -7.4 18.8
01:25 1017 30.03 846 24.98 -5.8 21.6 89 -7.2 19
01:30 1017 30.03 846 24.98 -5.6 21.9 88 -7.3 18.9
01:35 1017 30.03 846 24.98 -5.5 22.2 87 -7.3 18.9
01:40 1017 30.03 846 24.98 -5.3 22.5 86 -7.2 19
01:45 1017 30.03 847 25.01 -5.2 22.6 86 -7.2 19.1
01:50 1017 30.03 847 25.01 -5.3 22.5 86 -7.2 19
01:55 1018 30.06 847 25.01 -5.4 22.3 87 -7.3 18.9
02:00 1018 30.06 847 25.01 -5.8 21.5 89 -7.4 18.7
02:05 1018 30.06 847 25.01 -6 21.2 89 -7.5 18.5
02:10 1018 30.06 847 25.01 -6 21.1 89 -7.5 18.5
02:15 1018 30.06 847 25.01 -5.9 21.3 89 -7.5 18.5
02:20 1018 30.06 847 25.01 -6.1 21 90 -7.4 18.6
02:25 1018 30.06 847 25.01 -6.1 21 90 -7.5 18.5
02:30 1018 30.06 847 25.01 -6 21.1 90 -7.5 18.6
02:35 1018 30.06 847 25.01 -6.1 21 90 -7.5 18.4
02:40 1018 30.06 847 25.01 -6.3 20.7 91 -7.5 18.4
02:45 1018 30.06 847 25.01 -6.3 20.6 91 -7.6 18.3
02:50 1018 30.06 847 25.01 -6.2 20.9 90 -7.6 18.3
02:55 1018 30.06 847 25.01 -6.1 21 89 -7.6 18.3
03:00 1018 30.06 847 25.01 -6.1 21 89 -7.6 18.3
03:05 1018 30.06 847 25.01 -6.2 20.9 89 -7.6 18.3
03:10 1018 30.06 847 25.01 -6.1 21 89 -7.6 18.3
03:15 1018 30.06 847 25.01 -6.1 21 89 -7.6 18.3
03:20 1018 30.06 847 25.01 -5.9 21.3 89 -7.5 18.5
03:25 1018 30.06 847 25.01 -5.7 21.7 87 -7.6 18.4
03:30 1018 30.06 847 25.01 -5.8 21.5 88 -7.6 18.4
03:35 1018 30.06 847 25.01 -5.9 21.4 88 -7.6 18.2
03:40 1018 30.06 847 25.01 -6 21.3 88 -7.6 18.3
03:45 1017 30.03 847 25.01 -6 21.3 88 -7.7 18.2
03:50 1017 30.03 847 25.01 -6.1 21 88 -7.8 18
03:55 1017 30.03 846 24.98 -6.2 20.8 88 -7.8 17.9
04:00 1017 30.03 846 24.98 -6.2 20.8 88 -7.9 17.8
04:05 1017 30.03 847 25.01 -6.3 20.6 88 -8 17.5
04:10 1017 30.03 846 24.98 -6.2 20.8 87 -8.1 17.5
04:15 1017 30.03 846 24.98 -6.3 20.7 87 -8.2 17.3
04:20 1017 30.03 846 24.98 -6.2 20.8 86 -8.3 17.1
04:25 1017 30.03 846 24.98 -6.2 20.8 85 -8.3 17.1
04:30 1017 30.03 847 25.01 -6.3 20.7 85 -8.3 17
04:35 1017 30.03 847 25.01 -6.2 20.9 85 -8.3 17.1
04:40 1017 30.03 847 25.01 -5.9 21.3 84 -8.2 17.3
04:45 1018 30.06 847 25.01 -5.9 21.4 84 -8.2 17.2
04:50 1018 30.06 847 25.01 -5.9 21.4 84 -8.2 17.3
04:55 1018 30.06 847 25.01 -6 21.3 84 -8.2 17.2
05:00 1018 30.06 847 25.01 -6 21.2 85 -8.2 17.3
05:05 1018 30.06 847 25.01 -6 21.1 84 -8.3 17.1
05:10 1018 30.06 847 25.01 -6 21.1 84 -8.3 17.1
05:15 1018 30.06 847 25.01 -6.1 21 85 -8.3 17.1
05:20 1018 30.06 847 25.01 -6.2 20.8 85 -8.4 16.9
05:25 1018 30.06 847 25.01 -6.2 20.8 85 -8.4 16.9
05:30 1018 30.06 847 25.01 -6.2 20.8 84 -8.5 16.8
05:35 1018 30.06 847 25.01 -6.4 20.4 85 -8.6 16.5
05:40 1018 30.06 847 25.01 -6.6 20.2 85 -8.7 16.4
05:45 1018 30.06 847 25.01 -6.8 19.8 86 -8.8 16.2
05:50 1018 30.06 847 25.01 -7 19.4 87 -8.8 16.1
05:55 1018 30.06 847 25.01 -7.1 19.3 86 -9 15.8
06:00 1018 30.06 847 25.01 -7.1 19.2 88 -8.9 16.1
06:05 1018 30.06 847 25.01 -7.2 19 89 -8.8 16.2
06:10 1018 30.06 847 25.01 -7.3 18.9 89 -8.8 16.2
06:15 1018 30.06 847 25.01 -7.1 19.1 88 -8.9 16.1
06:20 1018 30.06 847 25.01 -7.3 18.8 89 -8.9 16
06:25 1018 30.06 847 25.01 -7.6 18.3 89 -9.1 15.6
06:30 1018 30.06 847 25.01 -7.9 17.8 89 -9.4 15.1
06:35 1018 30.06 847 25.01 -8 17.7 88 -9.6 14.8
06:40 1018 30.06 847 25.01 -7.8 17.9 88 -9.5 14.9
06:45 1018 30.06 847 25.01 -7.7 18.2 87 -9.5 14.9
06:50 1018 30.06 847 25.01 -7.8 18.1 87 -9.6 14.8
06:55 1018 30.06 847 25.01 -8.2 17.3 88 -9.8 14.3
07:00 1018 30.06 847 25.01 -8.4 16.9 89 -9.9 14.1
07:05 1018 30.06 847 25.01 -8.5 16.6 88 -10.2 13.6
07:10 1018 30.06 847 25.01 -8.7 16.4 87 -10.5 13.1
07:15 1018 30.06 847 25.01 -8.7 16.3 86 -10.6 12.8
07:20 1018 30.06 847 25.01 -8.8 16.2 86 -10.8 12.6
07:25 1018 30.06 847 25.01 -8.9 16 86 -10.8 12.5
07:30 1018 30.06 847 25.01 -9.1 15.7 86 -11 12.2
07:35 1018 30.06 847 25.01 -9.1 15.6 86 -11 12.2
07:40 1018 30.06 847 25.01 -9 15.9 85 -11 12.2
07:45 1018 30.06 847 25.01 -8.8 16.1 84 -11 12.1
07:50 1018 30.06 847 25.01 -8.8 16.2 84 -11 12.1
07:55 1018 30.06 847 25.01 -8.6 16.6 83 -11 12.2
08:00 1018 30.06 847 25.01 -8.3 17.1 81 -11 12.2
08:05 1018 30.06 847 25.01 -8 17.7 79 -10.9 12.3
08:10 1018 30.06 847 25.01 -7.5 18.5 78 -10.6 12.9
08:15 1018 30.06 847 25.01 -7 19.4 78 -10.2 13.6
08:20 1018 30.06 847 25.01 -6.7 19.9 77 -10.2 13.7
08:25 1018 30.06 847 25.01 -6.5 20.3 75 -10.2 13.7
08:30 1018 30.06 847 25.01 -6.5 20.3 77 -9.9 14.1
08:35 1018 30.06 847 25.01 -6.3 20.6 75 -10.1 13.9
08:40 1018 30.06 847 25.01 -5.8 21.5 73 -9.9 14.2
08:45 1018 30.06 847 25.01 -6.1 21.1 73 -10.2 13.7
08:50 1018 30.06 847 25.01 -5.9 21.4 72 -10.2 13.6
08:55 1018 30.06 847 25.01 -6 21.3 71 -10.4 13.2
09:00 1018 30.06 847 25.01 -5.9 21.5 72 -10.2 13.6
09:05 1018 30.06 848 25.04 -5.6 22 69 -10.3 13.5
09:10 1018 30.06 848 25.04 -5.3 22.5 69 -10.1 13.7
09:15 1018 30.06 848 25.04 -5.1 22.9 70 -9.8 14.4
09:20 1019 30.09 848 25.04 -4.7 23.5 67 -9.9 14.1
09:25 1019 30.09 848 25.04 -5 22.9 68 -10.1 13.8
09:30 1019 30.09 848 25.04 -5.2 22.7 68 -10.2 13.6
09:35 1019 30.09 848 25.04 -5 22.9 69 -9.8 14.3
09:40 1019 30.09 848 25.04 -5.3 22.4 71 -9.8 14.3
09:45 1019 30.09 848 25.04 -5.1 22.8 70 -9.8 14.3
09:50 1018 30.06 848 25.04 -4.8 23.4 67 -9.9 14.1
09:55 1018 30.06 848 25.04 -4.7 23.6 66 -10.1 13.8
10:00 1018 30.06 848 25.04 -4.1 24.5 64 -9.9 14.2
10:05 1018 30.06 848 25.04 -3.9 25 64 -9.8 14.4
10:10 1018 30.06 848 25.04 -3.7 25.4 65 -9.4 15.1
10:15 1019 30.09 848 25.04 -3.6 25.4 61 -10 13.9
10:20 1019 30.09 848 25.04 -4 24.8 65 -9.8 14.4
10:25 1019 30.09 848 25.04 -4.3 24.3 64 -10.1 13.8
10:30 1019 30.09 848 25.04 -3.5 25.8 58 -10.6 13
10:35 1019 30.09 848 25.04 -3.7 25.4 58 -10.8 12.5
10:40 1019 30.09 848 25.04 -4.2 24.4 61 -10.7 12.7
10:45 1019 30.09 848 25.04 -4.3 24.2 63 -10.4 13.4
10:50 1019 30.09 848 25.04 -4.6 23.7 67 -9.8 14.3
10:55 1019 30.09 848 25.04 -4.5 23.8 70 -9.1 15.5
11:00 1019 30.09 848 25.04 -4.6 23.8 69 -9.4 15.1
11:05 1019 30.09 848 25.04 -4.3 24.3 69 -9.2 15.4
11:10 1019 30.09 848 25.04 -4.2 24.5 71 -8.8 16.2
11:15 1019 30.09 848 25.04 -4.2 24.5 71 -8.7 16.3
11:20 1018 30.06 848 25.04 -4.2 24.5 70 -8.9 16
11:25 1018 30.06 848 25.04 -4.3 24.3 71 -8.8 16.2
11:30 1018 30.06 848 25.04 -4.2 24.5 72 -8.5 16.6
11:35 1018 30.06 847 25.01 -3.6 25.5 69 -8.5 16.6
11:40 1018 30.06 847 25.01 -3.6 25.5 69 -8.4 16.9
11:45 1018 30.06 847 25.01 -2.9 26.8 65 -8.7 16.4
11:50 1018 30.06 847 25.01 -2.8 27 64 -8.8 16.2
11:55 1018 30.06 847 25.01 -3.4 25.8 64 -9.3 15.2
12:00 1018 30.06 847 25.01 -3.1 26.5 64 -9 15.8
12:05 1018 30.06 847 25.01 -2.5 27.6 61 -9.1 15.7
12:10 1018 30.06 847 25.01 -1.9 28.6 57 -9.3 15.3
12:15 1017 30.03 847 25.01 -1.5 29.2 54 -9.6 14.7
12:20 1017 30.03 847 25.01 -1.4 29.5 55 -9.3 15.3
12:25 1017 30.03 847 25.01 -0.6 30.9 52 -9.3 15.2
12:30 1017 30.03 846 24.98 0 32 46 -10.3 13.4
12:35 1017 30.03 846 24.98 0.2 32.3 48 -9.6 14.7
12:40 1017 30.03 846 24.98 0.5 32.9 45 -10.1 13.9
12:45 1017 30.03 846 24.98 0.3 32.6 44 -10.5 13.1
12:50 1017 30.03 846 24.98 0.5 33 47 -9.5 14.9
12:55 1017 30.03 846 24.98 0.8 33.4 43 -10.3 13.4
13:00 1017 30.03 846 24.98 1.1 34 45 -9.5 14.8
13:05 1017 30.03 846 24.98 1.1 34 45 -9.5 14.9
13:10 1017 30.03 846 24.98 1 33.8 48 -8.8 16.1
13:15 1016 30 846 24.98 1.2 34.2 46 -9.1 15.7
13:20 1016 30 846 24.98 0.5 32.8 53 -8.1 17.4
13:25 1016 30 845 24.95 0.3 32.5 50 -8.9 16
13:30 1016 30 845 24.95 0.6 33 48 -9.3 15.3
13:35 1016 30 845 24.95 0.5 32.9 50 -8.8 16.1
13:40 1016 30 845 24.95 -0.3 31.4 52 -9.1 15.5
13:45 1016 30 845 24.95 -1 30.1 51 -10 14.1
13:50 1016 30 845 24.95 -1.2 29.8 53 -9.7 14.5
13:55 1016 30 845 24.95 -1.2 29.8 49 -10.5 13
14:00 1016 30 845 24.95 -1.4 29.4 53 -9.8 14.3
14:05 1016 30 845 24.95 -0.9 30.4 51 -9.9 14.2
14:10 1016 30 845 24.95 -0.4 31.3 45 -10.8 12.5
14:15 1016 30 845 24.95 -0.1 31.8 45 -10.7 12.7
14:20 1016 30 845 24.95 -0.2 31.6 47 -10.3 13.5
14:25 1016 30 845 24.95 0.8 33.4 40 -11.5 11.3
14:30 1016 30 845 24.95 0 32 44 -10.7 12.7
14:35 1016 30 845 24.95 0.7 33.2 42 -10.9 12.5
14:40 1016 30 845 24.95 1.1 33.9 40 -10.9 12.3
14:45 1016 30 845 24.95 1.4 34.6 39 -11.1 12
14:50 1016 30 845 24.95 1.5 34.7 43 -9.9 14.2
14:55 1016 30 845 24.95 1.6 34.9 40 -10.6 12.9
15:00 1016 30 845 24.95 1.6 34.9 39 -10.8 12.6
15:05 1016 30 845 24.95 1.7 35.1 39 -10.9 12.3
15:10 1016 30 845 24.95 1.9 35.4 38 -11 12.1
15:15 1016 30 845 24.95 2.2 36 37 -10.9 12.4
15:20 1016 30 845 24.95 2.5 36.6 37 -10.9 12.5
15:25 1016 30 845 24.95 0.2 32.4 44 -10.6 12.8
15:30 1016 30 845 24.95 -1.7 29 47 -11.6 11.1
15:35 1016 30 845 24.95 -2 28.3 47 -11.8 10.8
15:40 1016 30 845 24.95 -2 28.4 48 -11.6 11.1
15:45 1016 30 845 24.95 -0.6 30.9 44 -11.3 11.7
15:50 1016 30 845 24.95 0.7 33.3 40 -11.3 11.7
15:55 1016 30 845 24.95 1 33.8 41 -11 12.2
16:00 1016 30 846 24.98 0.5 32.9 42 -11.2 11.9
16:05 1016 30 845 24.95 0.1 32.1 47 -9.9 14.1
16:10 1016 30 845 24.95 -0.5 31.1 46 -10.8 12.5
16:15 1016 30 845 24.95 -1.2 29.9 49 -10.6 12.9
16:20 1016 30 845 24.95 -1.1 30 47 -11.1 11.9
16:25 1016 30 845 24.95 -1.1 30 50 -10.4 13.3
16:30 1016 30 846 24.98 -1.2 29.8 48 -11 12.2
16:35 1016 30 846 24.98 -1.4 29.5 49 -10.7 12.8
16:40 1016 30 846 24.98 -1.1 29.9 47 -11.1 12
16:45 1017 30.03 846 24.98 -1.1 30 47 -10.9 12.3
16:50 1017 30.03 846 24.98 -1.2 29.8 49 -10.7 12.7
16:55 1017 30.03 846 24.98 -1.3 29.6 49 -10.7 12.7
17:00 1017 30.03 846 24.98 -1.3 29.6 50 -10.5 13
17:05 1017 30.03 846 24.98 -1.4 29.4 51 -10.4 13.4
17:10 1017 30.03 846 24.98 -1.5 29.4 48 -11.1 12.1
17:15 1017 30.03 846 24.98 -1.5 29.2 50 -10.6 12.9
17:20 1017 30.03 846 24.98 -1.4 29.5 49 -10.7 12.7
17:25 1017 30.03 846 24.98 -1.6 29.1 53 -10 13.9
17:30 1017 30.03 846 24.98 -1.7 29 53 -10.1 13.9
17:35 1017 30.03 846 24.98 -1.9 28.5 53 -10.2 13.6
17:40 1017 30.03 846 24.98 -2.1 28.2 53 -10.4 13.3
17:45 1017 30.03 846 24.98 -2 28.5 54 -10.1 13.8
17:50 1017 30.03 846 24.98 -2.1 28.2 54 -10.3 13.5
17:55 1017 30.03 846 24.98 -2.1 28.2 53 -10.3 13.4
18:00 1017 30.03 846 24.98 -2.3 27.8 57 -9.8 14.4
18:05 1017 30.03 846 24.98 -1.8 28.7 52 -10.4 13.3
18:10 1017 30.03 846 24.98 -1.6 29 53 -10 14.1
18:15 1017 30.03 846 24.98 -1.8 28.8 54 -9.8 14.3
18:20 1017 30.03 847 25.01 -1.7 28.9 54 -9.9 14.2
18:25 1017 30.03 847 25.01 -2 28.4 55 -9.9 14.2
18:30 1017 30.03 847 25.01 -2.3 27.9 53 -10.5 13.1
18:35 1017 30.03 847 25.01 -2.5 27.5 56 -10 13.9
18:40 1017 30.03 847 25.01 -2.8 26.9 58 -10.1 13.8
18:45 1018 30.06 847 25.01 -2.9 26.8 57 -10.2 13.7
18:50 1017 30.03 847 25.01 -2.9 26.8 56 -10.5 13.1
18:55 1017 30.03 847 25.01 -2.8 26.9 56 -10.5 13.1
19:00 1017 30.03 847 25.01 -2.9 26.8 57 -10.2 13.6
19:05 1017 30.03 847 25.01 -2.6 27.3 54 -10.6 13
19:10 1017 30.03 847 25.01 -2.7 27.1 58 -10 14.1
19:15 1017 30.03 847 25.01 -2.8 27 53 -11 12.2
19:20 1017 30.03 847 25.01 -2.6 27.3 53 -10.8 12.5
19:25 1018 30.06 847 25.01 -2.2 28 51 -11.1 12.1
19:30 1018 30.06 847 25.01 -1.8 28.8 53 -10.1 13.8
19:35 1018 30.06 847 25.01 -1.4 29.5 50 -10.5 13.1
19:40 1018 30.06 847 25.01 -1.1 30 49 -10.4 13.3
19:45 1018 30.06 847 25.01 -1 30.3 50 -10 13.9
19:50 1018 30.06 847 25.01 -1 30.2 51 -9.8 14.3
19:55 1018 30.06 847 25.01 -1.2 29.9 52 -9.8 14.4
20:00 1018 30.06 847 25.01 -1.4 29.6 52 -10 14
20:05 1018 30.06 847 25.01 -1.4 29.4 53 -9.8 14.3
20:10 1018 30.06 847 25.01 -1.6 29.2 57 -8.9 16
20:15 1018 30.06 848 25.04 -1.8 28.7 58 -9 15.8
20:20 1018 30.06 848 25.04 -2.1 28.2 60 -8.8 16.2
20:25 1018 30.06 848 25.04 -2.2 28 59 -9.3 15.3
20:30 1018 30.06 848 25.04 -2.3 27.9 61 -8.9 16.1
20:35 1019 30.09 848 25.04 -2.3 27.9 60 -9 15.9
20:40 1019 30.09 848 25.04 -2.3 27.8 59 -9.4 15.1
20:45 1019 30.09 848 25.04 -2.3 27.8 59 -9.2 15.4
20:50 1019 30.09 848 25.04 -2.3 27.9 56 -9.9 14.3
20:55 1019 30.09 848 25.04 -2.1 28.1 59 -9.2 15.5
21:00 1019 30.09 848 25.04 -1.9 28.6 58 -9 15.7
21:05 1019 30.09 848 25.04 -1.9 28.6 59 -8.9 16
21:10 1019 30.09 848 25.04 -1.9 28.6 60 -8.7 16.3
21:15 1019 30.09 848 25.04 -2 28.4 61 -8.7 16.4
21:20 1019 30.09 848 25.04 -2 28.4 60 -8.8 16.2
21:25 1019 30.09 848 25.04 -2.1 28.2 63 -8.3 17.1
21:30 1019 30.09 848 25.04 -2.2 28.1 60 -9 15.8
21:35 1019 30.09 848 25.04 -2.2 28.1 61 -8.7 16.4
21:40 1019 30.09 848 25.04 -2.4 27.7 63 -8.4 16.8
21:45 1019 30.09 848 25.04 -2.2 28 60 -8.9 16
21:50 1019 30.09 848 25.04 -2 28.3 61 -8.7 16.4
21:55 1019 30.09 848 25.04 -2 28.3 62 -8.3 17.1
22:00 1019 30.09 848 25.04 -2.4 27.6 64 -8.3 17.1
22:05 1019 30.09 848 25.04 -2.6 27.3 65 -8.4 16.9
22:10 1019 30.09 848 25.04 -2.7 27.1 67 -8 17.5
22:15 1019 30.09 849 25.07 -2.5 27.4 66 -8.1 17.4
22:20 1019 30.09 849 25.07 -2.2 28 64 -8.2 17.2
22:25 1020 30.12 849 25.07 -1.9 28.7 60 -8.7 16.4
22:30 1020 30.12 849 25.07 -1.6 29.2 59 -8.5 16.8
22:35 1020 30.12 849 25.07 -1.5 29.4 59 -8.4 16.8
22:40 1020 30.12 849 25.07 -1.5 29.4 60 -8.3 17
22:45 1020 30.12 849 25.07 -1.7 29 62 -8 17.6
22:50 1020 30.12 849 25.07 -1.9 28.6 63 -8.1 17.4
22:55 1020 30.12 849 25.07 -2.1 28.3 63 -8.1 17.3
23:00 1020 30.12 849 25.07 -2.1 28.3 63 -8.3 17.1
23:05 1020 30.12 849 25.07 -2.1 28.2 62 -8.4 16.9
23:10 1020 30.12 849 25.07 -2 28.4 62 -8.2 17.2
23:15 1020 30.12 849 25.07 -2 28.4 62 -8.3 17.1
23:20 1020 30.12 849 25.07 -2 28.4 62 -8.3 17
23:25 1020 30.12 849 25.07 -2 28.4 62 -8.4 16.9
23:30 1020 30.12 849 25.07 -2 28.5 62 -8.4 16.9
23:35 1020 30.12 849 25.07 -2 28.5 62 -8.3 17
23:40 1020 30.12 849 25.07 -2 28.5 62 -8.4 16.9
23:45 1020 30.12 849 25.07 -2 28.4 62 -8.3 17
23:50 1020 30.12 849 25.07 -1.9 28.7 61 -8.5 16.8
23:55 1020 30.12 849 25.07 -1.7 29 60 -8.4 16.9
24:00 1020 30.12 849 25.07 -1.5 29.2 60 -8.4 16.8